GLO1271 SBPA-SBSP
Flight info
| Callsign | GLO1271 |
|---|---|
| Flight time | 1h 13m |
| Altitude | 39000 |
| Route | ANLER UM540 ANISE |
| Aircraft | B738/M-SDE2E3FGHIRWXY/LB1 |
Departure
| Time | 2026-05-01 13:28 |
|---|---|
| Airport | Porto Alegre-Salgado Filho International Airport (SBPA) |
Arrival
| Time | 2026-05-01 14:41 |
|---|---|
| Airport | Congonhas–Deputado Freitas Nobre Airport (SBSP) |
| Time | Latitude | Longitude | Altitude | Speed | Heading |
|---|---|---|---|---|---|
| 2026-05-01 13:17 | -29.99101 | -51.17805 | 21 ft | 0 kts | 21° |
| 2026-05-01 13:19 | -29.99106 | -51.17807 | 21 ft | 2 kts | 21° |
| 2026-05-01 13:20 | -29.99120 | -51.17813 | 21 ft | 2 kts | 21° |
| 2026-05-01 13:20 | -29.99134 | -51.17819 | 21 ft | 2 kts | 21° |
| 2026-05-01 13:20 | -29.99142 | -51.17823 | 21 ft | 2 kts | 19° |
| 2026-05-01 13:21 | -29.99159 | -51.17812 | 21 ft | 1 kts | 279° |
| 2026-05-01 13:21 | -29.99160 | -51.17804 | 21 ft | 0 kts | 279° |
| 2026-05-01 13:24 | -29.99159 | -51.17807 | 21 ft | 2 kts | 279° |
| 2026-05-01 13:24 | -29.99154 | -51.17842 | 21 ft | 5 kts | 279° |
| 2026-05-01 13:25 | -29.99222 | -51.17919 | 21 ft | 8 kts | 204° |
| 2026-05-01 13:25 | -29.99272 | -51.17963 | 22 ft | 9 kts | 243° |
| 2026-05-01 13:25 | -29.99292 | -51.18029 | 22 ft | 8 kts | 251° |
| 2026-05-01 13:25 | -29.99311 | -51.18087 | 22 ft | 7 kts | 248° |
| 2026-05-01 13:26 | -29.99323 | -51.18121 | 22 ft | 0 kts | 248° |
| 2026-05-01 13:26 | -29.99324 | -51.18124 | 22 ft | 2 kts | 247° |
| 2026-05-01 13:27 | -29.99350 | -51.18195 | 23 ft | 15 kts | 247° |
| 2026-05-01 13:27 | -29.99421 | -51.18265 | 23 ft | 9 kts | 161° |
| 2026-05-01 13:27 | -29.99445 | -51.17882 | 22 ft | 71 kts | 92° |
| 2026-05-01 13:28 | -29.99493 | -51.15851 | 164 ft | 162 kts | 92° |
| 2026-05-01 13:28 | -29.99542 | -51.14577 | 743 ft | 159 kts | 90° |
| 2026-05-01 13:29 | -29.99547 | -51.11967 | 1576 ft | 174 kts | 87° |
| 2026-05-01 13:29 | -29.99616 | -51.08934 | 2254 ft | 206 kts | 86° |
| 2026-05-01 13:30 | -29.99745 | -51.01274 | 3871 ft | 267 kts | 87° |
| 2026-05-01 13:31 | -29.99825 | -50.96944 | 5139 ft | 276 kts | 88° |
| 2026-05-01 13:31 | -29.98595 | -50.90676 | 7024 ft | 277 kts | 42° |
| 2026-05-01 13:32 | -29.95272 | -50.88546 | 8327 ft | 275 kts | 11° |
| 2026-05-01 13:33 | -29.89595 | -50.87572 | 10000 ft | 291 kts | 24° |
| 2026-05-01 13:33 | -29.86249 | -50.84931 | 9997 ft | 290 kts | 33° |
| 2026-05-01 13:34 | -29.82950 | -50.82205 | 10013 ft | 291 kts | 31° |
| 2026-05-01 13:34 | -29.79585 | -50.79595 | 10032 ft | 294 kts | 30° |
| 2026-05-01 13:35 | -29.75996 | -50.76841 | 10630 ft | 328 kts | 30° |
| 2026-05-01 13:35 | -29.74042 | -50.75337 | 10970 ft | 343 kts | 30° |
| 2026-05-01 13:35 | -29.69906 | -50.72147 | 11710 ft | 369 kts | 31° |
| 2026-05-01 13:36 | -29.67767 | -50.70494 | 12333 ft | 373 kts | 31° |
| 2026-05-01 13:36 | -29.65611 | -50.68827 | 12946 ft | 377 kts | 30° |
| 2026-05-01 13:36 | -29.61221 | -50.65440 | 14275 ft | 385 kts | 30° |
| 2026-05-01 13:37 | -29.58986 | -50.63718 | 14955 ft | 388 kts | 30° |
| 2026-05-01 13:37 | -29.57482 | -50.62561 | 15415 ft | 390 kts | 30° |
| 2026-05-01 13:37 | -29.54469 | -50.60243 | 16313 ft | 394 kts | 30° |
| 2026-05-01 13:37 | -29.52191 | -50.58493 | 16948 ft | 397 kts | 30° |
| 2026-05-01 13:38 | -29.47579 | -50.54886 | 18228 ft | 405 kts | 32° |
| 2026-05-01 13:38 | -29.45339 | -50.52865 | 18756 ft | 413 kts | 35° |
| 2026-05-01 13:38 | -29.43169 | -50.50736 | 19267 ft | 419 kts | 37° |
| 2026-05-01 13:39 | -29.40969 | -50.48507 | 19827 ft | 423 kts | 37° |
| 2026-05-01 13:39 | -29.38765 | -50.46267 | 20327 ft | 428 kts | 37° |
| 2026-05-01 13:39 | -29.36525 | -50.44000 | 20912 ft | 430 kts | 36° |
| 2026-05-01 13:39 | -29.34261 | -50.41724 | 21382 ft | 435 kts | 36° |
| 2026-05-01 13:40 | -29.31973 | -50.39436 | 21917 ft | 438 kts | 36° |
| 2026-05-01 13:40 | -29.29665 | -50.37138 | 22330 ft | 444 kts | 35° |
| 2026-05-01 13:40 | -29.27298 | -50.34810 | 22838 ft | 446 kts | 34° |
| 2026-05-01 13:40 | -29.24871 | -50.32584 | 23306 ft | 448 kts | 31° |
| 2026-05-01 13:41 | -29.22379 | -50.30432 | 23739 ft | 452 kts | 30° |
| 2026-05-01 13:41 | -29.19866 | -50.28321 | 24219 ft | 455 kts | 29° |
| 2026-05-01 13:41 | -29.17292 | -50.26179 | 24597 ft | 460 kts | 29° |
| 2026-05-01 13:41 | -29.14664 | -50.23992 | 25016 ft | 464 kts | 29° |
| 2026-05-01 13:42 | -29.12049 | -50.21807 | 25473 ft | 468 kts | 29° |
| 2026-05-01 13:42 | -29.09448 | -50.19620 | 25970 ft | 470 kts | 29° |
| 2026-05-01 13:42 | -29.06782 | -50.17375 | 26271 ft | 477 kts | 29° |
| 2026-05-01 13:42 | -29.04115 | -50.15119 | 26833 ft | 477 kts | 29° |
| 2026-05-01 13:43 | -29.01432 | -50.12848 | 27139 ft | 482 kts | 29° |
| 2026-05-01 13:43 | -28.98739 | -50.10564 | 27586 ft | 484 kts | 29° |
| 2026-05-01 13:43 | -28.96026 | -50.08265 | 27854 ft | 490 kts | 29° |
| 2026-05-01 13:43 | -28.93290 | -50.05944 | 28423 ft | 489 kts | 29° |
| 2026-05-01 13:44 | -28.90561 | -50.03626 | 28960 ft | 489 kts | 28° |
| 2026-05-01 13:44 | -28.87860 | -50.01333 | 29463 ft | 488 kts | 28° |
| 2026-05-01 13:44 | -28.85130 | -49.99014 | 30039 ft | 486 kts | 28° |
| 2026-05-01 13:44 | -28.82439 | -49.96730 | 30541 ft | 485 kts | 28° |
| 2026-05-01 13:45 | -28.79723 | -49.94429 | 30988 ft | 485 kts | 28° |
| 2026-05-01 13:45 | -28.77006 | -49.92131 | 31394 ft | 485 kts | 28° |
| 2026-05-01 13:45 | -28.74249 | -49.89805 | 31679 ft | 489 kts | 28° |
| 2026-05-01 13:45 | -28.71498 | -49.87486 | 32090 ft | 488 kts | 28° |
| 2026-05-01 13:46 | -28.68757 | -49.85175 | 32489 ft | 489 kts | 27° |
| 2026-05-01 13:46 | -28.66043 | -49.82887 | 32870 ft | 489 kts | 27° |
| 2026-05-01 13:46 | -28.63296 | -49.80571 | 33276 ft | 489 kts | 27° |
| 2026-05-01 13:46 | -28.60561 | -49.78264 | 33675 ft | 489 kts | 27° |
| 2026-05-01 13:47 | -28.57836 | -49.75970 | 33999 ft | 491 kts | 27° |
| 2026-05-01 13:47 | -28.55091 | -49.73656 | 34513 ft | 488 kts | 27° |
| 2026-05-01 13:47 | -28.52387 | -49.71375 | 34983 ft | 487 kts | 27° |
| 2026-05-01 13:47 | -28.49653 | -49.69072 | 35343 ft | 487 kts | 27° |
| 2026-05-01 13:48 | -28.46915 | -49.66773 | 35579 ft | 490 kts | 27° |
| 2026-05-01 13:48 | -28.44177 | -49.64478 | 35854 ft | 492 kts | 27° |
| 2026-05-01 13:48 | -28.41396 | -49.62149 | 36171 ft | 492 kts | 27° |
| 2026-05-01 13:48 | -28.38654 | -49.59853 | 36525 ft | 492 kts | 27° |
| 2026-05-01 13:49 | -28.35916 | -49.57558 | 36885 ft | 492 kts | 26° |
| 2026-05-01 13:49 | -28.33148 | -49.55241 | 37205 ft | 492 kts | 27° |
| 2026-05-01 13:49 | -28.30416 | -49.52956 | 37493 ft | 492 kts | 27° |
| 2026-05-01 13:49 | -28.27643 | -49.50641 | 37649 ft | 495 kts | 27° |
| 2026-05-01 13:50 | -28.24879 | -49.48333 | 37905 ft | 496 kts | 27° |
| 2026-05-01 13:50 | -28.22098 | -49.46012 | 38173 ft | 496 kts | 26° |
| 2026-05-01 13:50 | -28.19331 | -49.43702 | 38446 ft | 496 kts | 27° |
| 2026-05-01 13:50 | -28.16534 | -49.41370 | 38703 ft | 496 kts | 27° |
| 2026-05-01 13:51 | -28.13774 | -49.39068 | 39076 ft | 494 kts | 26° |
| 2026-05-01 13:51 | -28.11004 | -49.36760 | 39210 ft | 495 kts | 27° |
| 2026-05-01 13:51 | -28.08236 | -49.34459 | 39213 ft | 496 kts | 26° |
| 2026-05-01 13:52 | -28.02719 | -49.29808 | 39211 ft | 496 kts | 27° |
| 2026-05-01 13:52 | -27.97164 | -49.25074 | 39196 ft | 496 kts | 27° |
| 2026-05-01 13:53 | -27.91684 | -49.20394 | 39193 ft | 494 kts | 27° |
| 2026-05-01 13:53 | -27.83384 | -49.13440 | 39196 ft | 494 kts | 26° |
| 2026-05-01 13:54 | -27.77757 | -49.08937 | 39192 ft | 491 kts | 25° |
| 2026-05-01 13:54 | -27.72166 | -49.04495 | 39188 ft | 491 kts | 25° |
| 2026-05-01 13:55 | -27.66605 | -49.00044 | 39174 ft | 491 kts | 26° |
| 2026-05-01 13:55 | -27.61038 | -48.95492 | 39168 ft | 493 kts | 27° |
| 2026-05-01 13:56 | -27.55532 | -48.90950 | 39159 ft | 492 kts | 27° |
| 2026-05-01 13:56 | -27.50016 | -48.86392 | 39152 ft | 491 kts | 27° |
| 2026-05-01 13:57 | -27.45421 | -48.82610 | 39148 ft | 490 kts | 27° |
| 2026-05-01 13:57 | -27.38980 | -48.77324 | 39143 ft | 490 kts | 27° |
| 2026-05-01 13:58 | -27.33478 | -48.72818 | 39139 ft | 490 kts | 27° |
| 2026-05-01 13:58 | -27.27996 | -48.68337 | 39135 ft | 488 kts | 27° |
| 2026-05-01 13:59 | -27.22505 | -48.63818 | 39133 ft | 489 kts | 28° |
| 2026-05-01 13:59 | -27.17047 | -48.59233 | 39138 ft | 489 kts | 28° |
| 2026-05-01 14:00 | -27.11584 | -48.54737 | 39136 ft | 487 kts | 28° |
| 2026-05-01 14:00 | -27.06078 | -48.50286 | 39139 ft | 485 kts | 27° |
| 2026-05-01 14:01 | -27.00604 | -48.45889 | 39141 ft | 487 kts | 27° |
| 2026-05-01 14:01 | -26.95116 | -48.41480 | 39138 ft | 486 kts | 27° |
| 2026-05-01 14:02 | -26.89618 | -48.37060 | 39137 ft | 484 kts | 28° |
| 2026-05-01 14:02 | -26.84126 | -48.32642 | 39135 ft | 483 kts | 27° |
| 2026-05-01 14:03 | -26.78683 | -48.28273 | 39133 ft | 484 kts | 27° |
| 2026-05-01 14:03 | -26.73235 | -48.23899 | 39132 ft | 481 kts | 27° |
| 2026-05-01 14:04 | -26.67773 | -48.19517 | 39131 ft | 482 kts | 27° |
| 2026-05-01 14:04 | -26.63239 | -48.15872 | 39130 ft | 484 kts | 28° |
| 2026-05-01 14:05 | -26.56900 | -48.10769 | 39129 ft | 482 kts | 28° |
| 2026-05-01 14:05 | -26.51459 | -48.06396 | 39130 ft | 481 kts | 28° |
| 2026-05-01 14:06 | -26.46036 | -48.02042 | 39134 ft | 479 kts | 28° |
| 2026-05-01 14:06 | -26.40642 | -47.97722 | 39131 ft | 479 kts | 28° |
| 2026-05-01 14:07 | -26.35211 | -47.93379 | 39132 ft | 478 kts | 28° |
| 2026-05-01 14:08 | -26.27147 | -47.86937 | 39132 ft | 478 kts | 28° |
| 2026-05-01 14:08 | -26.21747 | -47.82626 | 39134 ft | 476 kts | 28° |
| 2026-05-01 14:09 | -26.16372 | -47.78341 | 39136 ft | 477 kts | 28° |
| 2026-05-01 14:09 | -26.10961 | -47.74036 | 39135 ft | 477 kts | 28° |
| 2026-05-01 14:10 | -26.05569 | -47.69747 | 39134 ft | 474 kts | 28° |
| 2026-05-01 14:10 | -26.00207 | -47.65490 | 39137 ft | 476 kts | 28° |
| 2026-05-01 14:11 | -25.94819 | -47.61216 | 39142 ft | 475 kts | 28° |
| 2026-05-01 14:11 | -25.86728 | -47.54814 | 39142 ft | 478 kts | 28° |
| 2026-05-01 14:12 | -25.81303 | -47.50523 | 39144 ft | 477 kts | 28° |
| 2026-05-01 14:12 | -25.75913 | -47.46265 | 39144 ft | 477 kts | 28° |
| 2026-05-01 14:13 | -25.71383 | -47.42689 | 39145 ft | 477 kts | 29° |
| 2026-05-01 14:13 | -25.65090 | -47.37731 | 39148 ft | 479 kts | 29° |
| 2026-05-01 14:14 | -25.59653 | -47.33450 | 39150 ft | 477 kts | 28° |
| 2026-05-01 14:14 | -25.54270 | -47.29216 | 39149 ft | 476 kts | 28° |
| 2026-05-01 14:15 | -25.48847 | -47.24959 | 39150 ft | 477 kts | 28° |
| 2026-05-01 14:15 | -25.43426 | -47.20707 | 39151 ft | 479 kts | 29° |
| 2026-05-01 14:16 | -25.37993 | -47.16449 | 39116 ft | 477 kts | 29° |
| 2026-05-01 14:16 | -25.35297 | -47.14333 | 38695 ft | 473 kts | 29° |
| 2026-05-01 14:16 | -25.32659 | -47.12262 | 38234 ft | 468 kts | 29° |
| 2026-05-01 14:17 | -25.29985 | -47.10166 | 37662 ft | 465 kts | 29° |
| 2026-05-01 14:17 | -25.27387 | -47.08132 | 37065 ft | 463 kts | 29° |
| 2026-05-01 14:17 | -25.24755 | -47.06076 | 36436 ft | 461 kts | 29° |
| 2026-05-01 14:17 | -25.22134 | -47.04031 | 35797 ft | 460 kts | 29° |
| 2026-05-01 14:18 | -25.19526 | -47.01996 | 35088 ft | 460 kts | 29° |
| 2026-05-01 14:18 | -25.16937 | -46.99978 | 34370 ft | 460 kts | 29° |
| 2026-05-01 14:18 | -25.14328 | -46.97948 | 33628 ft | 460 kts | 29° |
| 2026-05-01 14:18 | -25.12543 | -46.96607 | 33156 ft | 458 kts | 27° |
| 2026-05-01 14:19 | -25.09025 | -46.94184 | 32640 ft | 447 kts | 24° |
| 2026-05-01 14:19 | -25.06348 | -46.92444 | 32174 ft | 442 kts | 24° |
| 2026-05-01 14:19 | -25.03699 | -46.90754 | 31684 ft | 438 kts | 24° |
| 2026-05-01 14:19 | -25.01067 | -46.89084 | 31193 ft | 435 kts | 24° |
| 2026-05-01 14:20 | -24.98454 | -46.87418 | 30699 ft | 431 kts | 24° |
| 2026-05-01 14:20 | -24.93332 | -46.84124 | 29726 ft | 425 kts | 25° |
| 2026-05-01 14:20 | -24.90793 | -46.82479 | 29239 ft | 422 kts | 25° |
| 2026-05-01 14:21 | -24.88250 | -46.80825 | 28750 ft | 418 kts | 25° |
| 2026-05-01 14:21 | -24.85776 | -46.79215 | 28264 ft | 415 kts | 25° |
| 2026-05-01 14:21 | -24.83286 | -46.77592 | 27775 ft | 412 kts | 26° |
| 2026-05-01 14:22 | -24.78666 | -46.74578 | 26866 ft | 406 kts | 26° |
| 2026-05-01 14:22 | -24.76238 | -46.72994 | 26377 ft | 403 kts | 26° |
| 2026-05-01 14:22 | -24.73832 | -46.71425 | 25892 ft | 400 kts | 26° |
| 2026-05-01 14:22 | -24.71442 | -46.69867 | 25408 ft | 398 kts | 26° |
| 2026-05-01 14:23 | -24.69082 | -46.68329 | 24931 ft | 395 kts | 26° |
| 2026-05-01 14:23 | -24.66720 | -46.66792 | 24450 ft | 392 kts | 26° |
| 2026-05-01 14:23 | -24.64385 | -46.65274 | 23973 ft | 389 kts | 26° |
| 2026-05-01 14:23 | -24.62028 | -46.63875 | 23496 ft | 384 kts | 21° |
| 2026-05-01 14:24 | -24.59525 | -46.62881 | 23164 ft | 375 kts | 8° |
| 2026-05-01 14:24 | -24.56950 | -46.62501 | 23159 ft | 379 kts | 360° |
| 2026-05-01 14:24 | -24.54298 | -46.62400 | 22886 ft | 386 kts | 357° |
| 2026-05-01 14:24 | -24.51600 | -46.62399 | 22413 ft | 384 kts | 356° |
| 2026-05-01 14:25 | -24.48942 | -46.62434 | 21932 ft | 380 kts | 356° |
| 2026-05-01 14:25 | -24.46295 | -46.62472 | 21441 ft | 378 kts | 356° |
| 2026-05-01 14:25 | -24.43692 | -46.62505 | 20954 ft | 375 kts | 356° |
| 2026-05-01 14:25 | -24.41079 | -46.62528 | 20457 ft | 373 kts | 356° |
| 2026-05-01 14:26 | -24.38525 | -46.62543 | 20159 ft | 365 kts | 357° |
| 2026-05-01 14:26 | -24.33529 | -46.62555 | 19695 ft | 353 kts | 356° |
| 2026-05-01 14:26 | -24.31074 | -46.62560 | 19236 ft | 351 kts | 357° |
| 2026-05-01 14:27 | -24.28621 | -46.62564 | 18765 ft | 349 kts | 357° |
| 2026-05-01 14:27 | -24.26201 | -46.62568 | 18294 ft | 348 kts | 357° |
| 2026-05-01 14:27 | -24.23811 | -46.62571 | 17827 ft | 346 kts | 357° |
| 2026-05-01 14:28 | -24.19001 | -46.62576 | 16872 ft | 343 kts | 357° |
| 2026-05-01 14:28 | -24.16619 | -46.62578 | 16398 ft | 342 kts | 358° |
| 2026-05-01 14:28 | -24.14227 | -46.62580 | 15924 ft | 340 kts | 358° |
| 2026-05-01 14:28 | -24.11858 | -46.62581 | 15470 ft | 338 kts | 358° |
| 2026-05-01 14:29 | -24.09530 | -46.62582 | 15013 ft | 337 kts | 358° |
| 2026-05-01 14:29 | -24.07194 | -46.62584 | 14551 ft | 335 kts | 358° |
| 2026-05-01 14:30 | -24.00234 | -46.62587 | 13176 ft | 330 kts | 359° |
| 2026-05-01 14:30 | -23.97941 | -46.62589 | 12738 ft | 328 kts | 359° |
| 2026-05-01 14:30 | -23.95672 | -46.62591 | 12296 ft | 327 kts | 359° |
| 2026-05-01 14:31 | -23.91101 | -46.62595 | 11381 ft | 323 kts | 359° |
| 2026-05-01 14:31 | -23.88847 | -46.62597 | 10938 ft | 321 kts | 359° |
| 2026-05-01 14:31 | -23.86621 | -46.62673 | 10572 ft | 315 kts | 353° |
| 2026-05-01 14:31 | -23.84532 | -46.63223 | 10419 ft | 300 kts | 335° |
| 2026-05-01 14:32 | -23.82764 | -46.64319 | 10338 ft | 286 kts | 326° |
| 2026-05-01 14:32 | -23.81661 | -46.65138 | 10178 ft | 282 kts | 324° |
| 2026-05-01 14:32 | -23.79516 | -46.66768 | 9657 ft | 281 kts | 325° |
| 2026-05-01 14:32 | -23.77913 | -46.67938 | 9310 ft | 279 kts | 327° |
| 2026-05-01 14:33 | -23.76366 | -46.69031 | 9242 ft | 268 kts | 327° |
| 2026-05-01 14:33 | -23.74782 | -46.70134 | 9246 ft | 269 kts | 327° |
| 2026-05-01 14:33 | -23.73200 | -46.71231 | 8949 ft | 265 kts | 328° |
| 2026-05-01 14:33 | -23.71650 | -46.72301 | 8959 ft | 266 kts | 327° |
| 2026-05-01 14:34 | -23.70074 | -46.73391 | 8835 ft | 266 kts | 327° |
| 2026-05-01 14:34 | -23.68520 | -46.74468 | 8394 ft | 261 kts | 328° |
| 2026-05-01 14:34 | -23.67246 | -46.75350 | 7910 ft | 262 kts | 328° |
| 2026-05-01 14:34 | -23.65599 | -46.76491 | 7399 ft | 259 kts | 328° |
| 2026-05-01 14:35 | -23.64075 | -46.77546 | 7016 ft | 259 kts | 328° |
| 2026-05-01 14:35 | -23.62583 | -46.78580 | 6738 ft | 246 kts | 328° |
| 2026-05-01 14:35 | -23.61203 | -46.79537 | 6513 ft | 227 kts | 328° |
| 2026-05-01 14:35 | -23.59921 | -46.80426 | 6430 ft | 206 kts | 329° |
| 2026-05-01 14:36 | -23.58759 | -46.81227 | 6377 ft | 187 kts | 330° |
| 2026-05-01 14:36 | -23.57615 | -46.81768 | 6317 ft | 173 kts | 352° |
| 2026-05-01 14:36 | -23.56429 | -46.81610 | 6224 ft | 177 kts | 21° |
| 2026-05-01 14:36 | -23.55380 | -46.80868 | 5992 ft | 181 kts | 42° |
| 2026-05-01 14:37 | -23.54634 | -46.79760 | 5771 ft | 180 kts | 57° |
| 2026-05-01 14:37 | -23.54010 | -46.78605 | 5624 ft | 178 kts | 56° |
| 2026-05-01 14:37 | -23.53347 | -46.77452 | 5489 ft | 178 kts | 54° |
| 2026-05-01 14:37 | -23.52672 | -46.76313 | 5335 ft | 179 kts | 54° |
| 2026-05-01 14:38 | -23.52042 | -46.75142 | 5144 ft | 180 kts | 65° |
| 2026-05-01 14:38 | -23.51904 | -46.73806 | 4974 ft | 182 kts | 103° |
| 2026-05-01 14:38 | -23.52607 | -46.72613 | 4710 ft | 194 kts | 139° |
| 2026-05-01 14:38 | -23.53705 | -46.71801 | 4435 ft | 188 kts | 146° |
| 2026-05-01 14:39 | -23.54790 | -46.71067 | 4238 ft | 178 kts | 145° |
| 2026-05-01 14:39 | -23.55819 | -46.70349 | 3987 ft | 173 kts | 144° |
| 2026-05-01 14:39 | -23.56593 | -46.69816 | 3901 ft | 164 kts | 145° |
| 2026-05-01 14:39 | -23.57701 | -46.69060 | 3589 ft | 156 kts | 144° |
| 2026-05-01 14:40 | -23.58595 | -46.68441 | 3408 ft | 149 kts | 144° |
| 2026-05-01 14:40 | -23.59484 | -46.67831 | 3233 ft | 149 kts | 144° |
| 2026-05-01 14:40 | -23.60392 | -46.67202 | 3103 ft | 151 kts | 144° |
| 2026-05-01 14:40 | -23.61277 | -46.66614 | 2843 ft | 150 kts | 146° |
| 2026-05-01 14:41 | -23.62168 | -46.65992 | 2655 ft | 149 kts | 146° |
| 2026-05-01 14:41 | -23.62887 | -46.65493 | 2665 ft | 81 kts | 147° |
| 2026-05-01 14:41 | -23.63205 | -46.65276 | 2667 ft | 42 kts | 147° |
| 2026-05-01 14:41 | -23.63372 | -46.65205 | 2664 ft | 16 kts | 184° |
| 2026-05-01 14:42 | -23.63405 | -46.65274 | 2663 ft | 6 kts | 302° |
| 2026-05-01 14:42 | -23.63373 | -46.65304 | 2665 ft | 6 kts | 323° |
| 2026-05-01 14:42 | -23.63323 | -46.65338 | 2666 ft | 10 kts | 330° |
| 2026-05-01 14:42 | -23.63250 | -46.65384 | 2666 ft | 8 kts | 326° |
| 2026-05-01 14:43 | -23.63191 | -46.65426 | 2666 ft | 12 kts | 328° |
| 2026-05-01 14:43 | -23.63117 | -46.65478 | 2666 ft | 11 kts | 328° |
| 2026-05-01 14:43 | -23.63051 | -46.65517 | 2666 ft | 9 kts | 345° |
| 2026-05-01 14:43 | -23.62999 | -46.65535 | 2665 ft | 5 kts | 337° |
| 2026-05-01 14:44 | -23.62969 | -46.65551 | 2665 ft | 5 kts | 329° |
| 2026-05-01 14:44 | -23.62902 | -46.65597 | 2663 ft | 4 kts | 329° |
| 2026-05-01 14:44 | -23.62858 | -46.65627 | 2661 ft | 10 kts | 328° |
| 2026-05-01 14:45 | -23.62781 | -46.65680 | 2659 ft | 14 kts | 328° |
| 2026-05-01 14:45 | -23.62698 | -46.65780 | 2653 ft | 5 kts | 240° |
| 2026-05-01 14:45 | -23.62713 | -46.65807 | 2652 ft | 2 kts | 237° |
| 2026-05-01 14:46 | -23.62719 | -46.65818 | 2652 ft | 1 kts | 237° |
| 2026-05-01 14:46 | -23.62720 | -46.65819 | 2652 ft | 0 kts | 237° |